Time;durP1;ratioP1;P1;durP2;ratioP2;P2;SDS_P1;SDS_P2;PMS_P1;PMS_P2;Temp;Humidity;BMP_temperature;BMP_pressure;BME280_temperature;BME280_humidity;BME280_pressure;Samples;Min_cycle;Max_cycle;Signal;HPM_P1;HPM_P2
2024/03/22 00:00:13;;;;;;;8.75;4.72;;;;;;;8.52;100.00;93681.69;2106716;28;20070;-86
2024/03/22 00:01:14;;;;;;;6.75;4.85;;;;;;;8.47;100.00;93684.78;2098305;28;20037;-83
2024/03/22 00:02:15;;;;;;;5.05;4.32;;;;;;;8.47;100.00;93682.13;2115242;28;20035;-86
2024/03/22 00:03:17;;;;;;;6.35;4.85;;;;;;;8.43;100.00;93686.69;2098632;28;20063;-83
2024/03/22 00:04:18;;;;;;;7.43;5.47;;;;;;;8.58;100.00;93688.13;2082113;28;20958;-84
2024/03/22 00:05:21;;;;;;;6.68;4.80;;;;;;;8.58;100.00;93682.81;2098558;28;20682;-82
2024/03/22 00:06:22;;;;;;;8.80;4.95;;;;;;;8.58;100.00;93679.38;2098633;28;20917;-83
2024/03/22 00:07:22;;;;;;;8.45;5.00;;;;;;;8.48;100.00;93674.88;2088903;28;20106;-81
2024/03/22 00:08:23;;;;;;;7.82;4.93;;;;;;;8.49;100.00;93681.72;2099729;28;20044;-83
2024/03/22 00:09:24;;;;;;;5.18;4.68;;;;;;;8.49;100.00;93676.38;2106734;28;20032;-85
2024/03/22 00:10:25;;;;;;;4.80;4.35;;;;;;;8.47;100.00;93679.44;2098428;28;20051;-84
2024/03/22 00:11:26;;;;;;;6.63;4.90;;;;;;;8.27;100.00;93683.69;2098520;28;20493;-83
2024/03/22 00:12:27;;;;;;;5.72;4.53;;;;;;;8.20;100.00;93689.03;2098637;28;20020;-83
2024/03/22 00:13:28;;;;;;;7.95;5.03;;;;;;;8.39;100.00;93690.53;2097944;28;20025;-86
2024/03/22 00:14:29;;;;;;;7.70;5.18;;;;;;;8.39;100.00;93679.88;2114410;28;20027;-84
2024/03/22 00:15:30;;;;;;;6.18;4.90;;;;;;;8.33;100.00;93687.44;2106653;28;20051;-84
2024/03/22 00:16:31;;;;;;;7.40;4.60;;;;;;;8.27;100.00;93684.44;2106850;28;20035;-83
2024/03/22 00:17:33;;;;;;;8.15;4.28;;;;;;;8.29;100.00;93684.03;2098546;28;20024;-84
2024/03/22 00:18:34;;;;;;;7.63;5.07;;;;;;;8.27;100.00;93679.09;2083167;28;20033;-85
2024/03/22 00:19:35;;;;;;;7.63;5.32;;;;;;;8.15;100.00;93676.88;2098580;28;20028;-82
2024/03/22 00:20:41;;;;;;;8.40;4.93;;;;;;;8.25;100.00;93680.63;2106737;28;20020;-82
2024/03/22 00:21:42;;;;;;;7.15;4.68;;;;;;;8.24;100.00;93677.22;2106154;28;20023;-82
2024/03/22 00:22:43;;;;;;;6.60;4.80;;;;;;;8.21;100.00;93682.53;2090375;28;20142;-82
2024/03/22 00:23:45;;;;;;;9.70;5.05;;;;;;;8.25;100.00;93676.09;2098326;28;20039;-86
2024/03/22 00:24:46;;;;;;;7.03;5.13;;;;;;;8.15;100.00;93673.44;2093349;28;20102;-84
2024/03/22 00:25:47;;;;;;;7.47;4.72;;;;;;;8.13;100.00;93683.72;2106495;28;20040;-85
2024/03/22 00:26:48;;;;;;;12.00;5.15;;;;;;;7.90;100.00;93673.50;2090031;28;20025;-86
2024/03/22 00:27:49;;;;;;;5.13;4.53;;;;;;;8.10;100.00;93674.59;2106859;28;20023;-84
2024/03/22 00:28:50;;;;;;;9.05;5.40;;;;;;;7.97;100.00;93676.16;2115062;28;20062;-85
2024/03/22 00:29:51;;;;;;;11.48;5.47;;;;;;;7.96;100.00;93675.41;2098367;28;20028;-85
2024/03/22 00:30:52;;;;;;;8.13;4.80;;;;;;;8.23;100.00;93664.28;2103594;28;20032;-84
2024/03/22 00:31:53;;;;;;;7.20;5.20;;;;;;;8.16;100.00;93674.97;2098410;28;20062;-82
2024/03/22 00:32:54;;;;;;;8.23;5.15;;;;;;;8.03;100.00;93666.63;2105391;28;20020;-82
2024/03/22 00:33:55;;;;;;;7.57;5.18;;;;;;;8.22;100.00;93666.19;2106558;28;20678;-85
2024/03/22 00:34:56;;;;;;;6.40;4.78;;;;;;;8.19;100.00;93661.63;2098238;28;20031;-85
2024/03/22 00:35:57;;;;;;;6.15;4.47;;;;;;;8.12;100.00;93659.03;2098237;28;20354;-84
2024/03/22 00:36:58;;;;;;;11.93;5.47;;;;;;;8.15;100.00;93660.88;2098441;28;20025;-83
2024/03/22 00:37:59;;;;;;;7.18;4.95;;;;;;;8.20;100.00;93667.72;2106751;28;20101;-87
2024/03/22 00:39:00;;;;;;;7.95;4.78;;;;;;;8.14;100.00;93663.94;2106638;28;20124;-86
2024/03/22 00:40:01;;;;;;;6.22;4.82;;;;;;;8.25;100.00;93660.09;2106583;28;20040;-82
2024/03/22 00:41:03;;;;;;;6.80;4.85;;;;;;;8.17;100.00;93661.28;2098309;28;20087;-85
2024/03/22 00:42:04;;;;;;;7.32;4.70;;;;;;;8.07;100.00;93660.16;2106562;28;20053;-84
2024/03/22 00:43:06;;;;;;;5.32;4.43;;;;;;;8.15;100.00;93665.47;2089749;28;20029;-85
2024/03/22 00:44:07;;;;;;;7.85;5.05;;;;;;;8.16;100.00;93658.97;2096624;28;20035;-82
2024/03/22 00:45:08;;;;;;;7.75;4.65;;;;;;;8.13;100.00;93662.44;2098064;28;20029;-83
2024/03/22 00:46:09;;;;;;;7.03;4.82;;;;;;;8.10;100.00;93660.53;2101672;28;20460;-83
2024/03/22 00:47:10;;;;;;;6.70;5.13;;;;;;;8.23;100.00;93661.63;2094909;28;20035;-82
2024/03/22 00:48:45;;;;;;;8.88;5.38;;;;;;;8.11;100.00;93660.13;2093329;28;20052;-82
2024/03/22 00:49:46;;;;;;;6.20;4.32;;;;;;;8.47;100.00;93652.81;2019497;27;20024;-86
2024/03/22 00:50:47;;;;;;;7.55;5.60;;;;;;;8.56;100.00;93653.13;2026242;28;20032;-85
2024/03/22 00:51:48;;;;;;;8.98;5.10;;;;;;;8.47;100.00;93652.03;2027657;28;20043;-82
2024/03/22 00:52:51;;;;;;;6.95;5.00;;;;;;;8.39;100.00;93646.00;2034228;28;23573;-82
2024/03/22 00:53:53;;;;;;;6.65;5.00;;;;;;;8.44;100.00;93644.81;2030559;28;20051;-83
2024/03/22 00:54:54;;;;;;;8.98;5.30;;;;;;;8.52;100.00;93651.63;2039615;28;20034;-83
2024/03/22 00:55:56;;;;;;;8.93;4.75;;;;;;;8.63;100.00;93649.66;2040160;28;20028;-82
2024/03/22 00:56:57;;;;;;;6.63;5.40;;;;;;;8.57;100.00;93648.56;2047714;28;20366;-84
2024/03/22 00:57:58;;;;;;;7.18;4.63;;;;;;;8.57;100.00;93646.66;2051418;28;20078;-82
2024/03/22 00:58:58;;;;;;;8.85;4.88;;;;;;;8.49;100.00;93644.41;2042155;28;22182;-87
2024/03/22 00:59:59;;;;;;;6.70;5.10;;;;;;;8.38;100.00;93649.78;2063462;28;20027;-83
2024/03/22 01:01:00;;;;;;;7.93;5.07;;;;;;;8.44;100.00;93645.59;2063499;28;20059;-85
2024/03/22 01:02:02;;;;;;;6.80;5.50;;;;;;;8.30;100.00;93641.06;2065280;28;20034;-83
2024/03/22 01:03:03;;;;;;;6.32;4.88;;;;;;;8.40;100.00;93639.50;2068570;28;20102;-86
2024/03/22 01:04:04;;;;;;;7.72;5.13;;;;;;;8.49;100.00;93636.41;2081006;28;20093;-87
2024/03/22 01:05:05;;;;;;;7.88;4.70;;;;;;;8.55;100.00;93637.53;2104455;27;20048;-84
2024/03/22 01:06:07;;;;;;;9.50;6.38;;;;;;;8.56;100.00;93636.41;2103256;28;20027;-85
2024/03/22 01:07:08;;;;;;;9.60;5.15;;;;;;;8.62;100.00;93632.16;2090090;28;20028;-84
2024/03/22 01:08:09;;;;;;;7.10;4.80;;;;;;;8.63;100.00;93628.34;2097705;28;20012;-86
2024/03/22 01:09:10;;;;;;;6.97;4.80;;;;;;;8.65;100.00;93630.59;2106485;28;20027;-83
2024/03/22 01:10:12;;;;;;;6.75;5.28;;;;;;;8.70;100.00;93630.97;2089806;28;20504;-85
2024/03/22 01:11:13;;;;;;;7.93;4.55;;;;;;;8.67;100.00;93631.75;2098092;28;20382;-88
2024/03/22 01:12:14;;;;;;;7.88;4.82;;;;;;;8.64;100.00;93629.09;2089874;28;20044;-84
2024/03/22 01:13:15;;;;;;;8.65;4.85;;;;;;;8.52;100.00;93630.31;2098401;28;20505;-82
2024/03/22 01:14:16;;;;;;;6.25;4.75;;;;;;;8.51;100.00;93629.53;2106288;28;20020;-84
2024/03/22 01:15:17;;;;;;;8.98;4.40;;;;;;;8.55;100.00;93627.63;2089702;28;20021;-82
2024/03/22 01:16:18;;;;;;;7.07;5.03;;;;;;;8.60;100.00;93634.44;2089759;28;20044;-87
2024/03/22 01:17:19;;;;;;;6.45;4.40;;;;;;;8.64;100.00;93629.84;2089824;28;20029;-82
2024/03/22 01:18:20;;;;;;;6.28;4.63;;;;;;;8.69;100.00;93634.00;2106584;28;20035;-84
2024/03/22 01:19:22;;;;;;;9.77;5.32;;;;;;;8.64;100.00;93627.19;2113902;28;20080;-83
2024/03/22 01:20:23;;;;;;;5.35;4.50;;;;;;;8.85;100.00;93628.97;2098147;28;20043;-81
2024/03/22 01:21:25;;;;;;;7.18;4.53;;;;;;;9.01;100.00;93631.16;2089781;28;20052;-83
2024/03/22 01:22:26;;;;;;;7.03;4.78;;;;;;;9.04;100.00;93631.13;2098128;28;20027;-85
2024/03/22 01:23:37;;;;;;;9.27;5.30;;;;;;;8.98;100.00;93629.25;2106359;28;20026;-82
2024/03/22 01:24:38;;;;;;;6.00;5.00;;;;;;;8.82;100.00;93632.41;2097986;28;20028;-83
2024/03/22 01:25:39;;;;;;;7.80;4.68;;;;;;;8.78;100.00;93631.66;2097741;28;20024;-85
2024/03/22 01:26:40;;;;;;;6.00;4.85;;;;;;;8.90;100.00;93631.22;2106340;28;20147;-82
2024/03/22 01:27:41;;;;;;;5.47;4.32;;;;;;;8.93;100.00;93632.34;2089912;28;20060;-85
2024/03/22 01:28:42;;;;;;;8.35;5.35;;;;;;;9.05;100.00;93627.31;2089844;28;20028;-83
2024/03/22 01:29:43;;;;;;;6.47;4.63;;;;;;;9.18;100.00;93621.50;2106229;28;20020;-81
2024/03/22 01:30:44;;;;;;;7.82;4.72;;;;;;;9.10;100.00;93626.13;2113413;28;20108;-85
2024/03/22 01:31:45;;;;;;;9.60;4.85;;;;;;;9.21;100.00;93620.69;2097193;28;20424;-84
2024/03/22 01:32:46;;;;;;;7.55;4.90;;;;;;;9.19;100.00;93628.34;2114773;28;20031;-84
2024/03/22 01:33:47;;;;;;;8.38;4.63;;;;;;;9.20;100.00;93616.50;2114457;28;20032;-84
2024/03/22 01:34:48;;;;;;;8.38;5.50;;;;;;;9.38;100.00;93622.44;2089595;28;20029;-83
2024/03/22 01:35:49;;;;;;;9.10;4.82;;;;;;;8.44;100.00;93626.94;2097783;28;20444;-84
2024/03/22 01:36:51;;;;;;;6.43;4.63;;;;;;;8.37;100.00;93624.28;2097796;28;20409;-82
2024/03/22 01:37:52;;;;;;;6.95;4.47;;;;;;;8.60;100.00;93623.03;2114682;27;20053;-84
2024/03/22 01:38:53;;;;;;;4.93;4.43;;;;;;;8.80;100.00;93619.47;2106314;28;20031;-84
2024/03/22 01:39:54;;;;;;;7.75;4.63;;;;;;;8.97;100.00;93617.06;2098805;28;20051;-82
2024/03/22 01:40:55;;;;;;;6.72;5.13;;;;;;;9.09;100.00;93619.28;2088452;28;20044;-82
2024/03/22 01:41:56;;;;;;;7.25;5.13;;;;;;;8.93;100.00;93613.69;2089934;28;20028;-84
2024/03/22 01:42:58;;;;;;;6.03;4.55;;;;;;;9.09;100.00;93613.94;2098045;28;20025;-82
2024/03/22 01:43:59;;;;;;;6.28;4.78;;;;;;;8.88;100.00;93606.09;2097901;28;20066;-81
2024/03/22 01:45:00;;;;;;;7.78;4.70;;;;;;;8.81;100.00;93607.66;2106222;28;20330;-84
2024/03/22 01:46:01;;;;;;;7.93;4.97;;;;;;;8.87;100.00;93608.00;2110466;28;20042;-83
2024/03/22 01:51:44;;;;;;;5.18;4.28;;;;;;;8.64;100.00;93610.44;2116555;27;20030;-86
2024/03/22 01:52:46;;;;;;;6.28;4.28;;;;;;;8.39;100.00;93606.03;2100192;28;20032;-85
2024/03/22 01:53:47;;;;;;;7.00;4.68;;;;;;;8.37;100.00;93596.91;2005098;28;20513;-83
2024/03/22 01:54:49;;;;;;;5.72;4.97;;;;;;;8.50;100.00;93600.63;2000965;28;20032;-86
2024/03/22 01:55:50;;;;;;;6.30;5.22;;;;;;;8.47;100.00;93591.53;2022660;27;20476;-87
2024/03/22 01:56:51;;;;;;;7.95;5.15;;;;;;;8.42;100.00;93597.25;2036137;27;20038;-83
2024/03/22 01:57:53;;;;;;;7.13;5.43;;;;;;;8.42;100.00;93588.50;2021827;28;20048;-82
2024/03/22 01:58:56;;;;;;;8.73;5.63;;;;;;;8.32;100.00;93598.03;2025208;28;20081;-83
2024/03/22 01:59:59;;;;;;;10.98;5.80;;;;;;;8.33;100.00;93594.22;2035785;28;20032;-86
2024/03/22 02:01:00;;;;;;;10.48;5.20;;;;;;;8.48;100.00;93593.03;2029740;28;24137;-83
2024/03/22 02:02:03;;;;;;;5.88;5.10;;;;;;;8.60;100.00;93588.38;2049498;28;20126;-83
2024/03/22 02:05:52;;;;;;;8.38;5.25;;;;;;;8.62;100.00;93592.19;2064920;27;20030;-86
2024/03/22 02:10:54;;;;;;;6.07;4.63;;;;;;;8.24;100.00;93581.34;2080275;27;20060;-83
2024/03/22 02:11:55;;;;;;;7.50;4.70;;;;;;;8.13;100.00;93575.31;2073501;28;20046;-82
2024/03/22 02:15:09;;;;;;;7.15;4.85;;;;;;;8.15;100.00;93570.34;2106499;28;20110;-82
2024/03/22 02:22:01;;;;;;;5.97;4.35;;;;;;;7.77;100.00;93572.03;2114694;28;20031;-84
2024/03/22 02:23:02;;;;;;;5.85;4.43;;;;;;;7.86;100.00;93575.06;2113236;28;20034;-83
2024/03/22 02:29:36;;;;;;;5.00;4.53;;;;;;;6.10;100.00;93578.97;2134431;27;19962;-86
2024/03/22 02:34:55;;;;;;;9.98;4.28;;;;;;;5.89;100.00;93574.34;2133224;27;20030;-84
2024/03/22 02:35:57;;;;;;;6.38;4.68;;;;;;;5.92;100.00;93572.84;2111746;28;20019;-86
2024/03/22 02:36:58;;;;;;;5.88;4.88;;;;;;;5.92;100.00;93572.84;2109989;28;20434;-84
2024/03/22 02:37:59;;;;;;;6.30;5.10;;;;;;;5.78;100.00;93569.00;2119439;27;20177;-86
2024/03/22 02:40:58;;;;;;;5.95;4.60;;;;;;;5.63;100.00;93564.78;2127085;27;20084;-82
2024/03/22 02:41:59;;;;;;;7.18;4.80;;;;;;;5.73;100.00;93564.03;2104751;28;20377;-84
2024/03/22 02:43:00;;;;;;;7.63;6.13;;;;;;;5.81;100.00;93572.78;2117462;28;20061;-84
2024/03/22 02:44:01;;;;;;;9.50;4.57;;;;;;;5.81;100.00;93564.84;2120887;28;20102;-85
2024/03/22 02:45:02;;;;;;;8.68;5.68;;;;;;;5.84;100.00;93555.34;2120925;27;20030;-83
2024/03/22 02:46:04;;;;;;;5.68;4.95;;;;;;;5.99;100.00;93565.69;2121194;27;20023;-83
2024/03/22 02:48:01;;;;;;;8.60;5.25;;;;;;;5.96;100.00;93553.16;2121156;27;20027;-85
2024/03/22 02:53:37;;;;;;;6.35;4.20;;;;;;;5.89;100.00;93553.13;2130171;27;20376;-83
2024/03/22 02:55:32;;;;;;;5.88;4.70;;;;;;;5.80;100.00;93542.09;2133450;27;20019;-84
2024/03/22 02:56:33;;;;;;;5.03;4.40;;;;;;;5.65;100.00;93540.53;2138310;27;20019;-83
2024/03/22 03:07:36;;;;;;;4.88;4.38;;;;;;;5.41;100.00;93534.75;2134076;27;20447;-85
2024/03/22 03:10:45;;;;;;;7.05;4.43;;;;;;;5.35;100.00;93533.56;2123093;27;20027;-84
2024/03/22 03:14:43;;;;;;;6.40;4.50;;;;;;;5.39;100.00;93533.59;2114009;28;20460;-83
2024/03/22 03:18:07;;;;;;;10.98;5.22;;;;;;;5.58;100.00;93533.31;2127022;27;20418;-84
2024/03/22 03:19:07;;;;;;;5.47;4.57;;;;;;;5.61;100.00;93534.44;2128934;27;20435;-85
2024/03/22 03:21:08;;;;;;;;;;;;;;;;;;;;;
2024/03/22 03:22:41;;;;;;;8.45;4.78;;;;;;;5.51;100.00;93526.09;2095060;28;20040;-84
2024/03/22 03:23:42;;;;;;;8.88;4.93;;;;;;;5.46;100.00;93528.34;2089994;28;20055;-85
2024/03/22 03:44:14;;;;;;;6.80;4.50;;;;;;;6.01;100.00;93517.53;2119539;27;20031;-84
2024/03/22 03:45:15;;;;;;;6.57;4.85;;;;;;;5.87;100.00;93518.25;2110404;28;20039;-83
2024/03/22 03:48:13;;;;;;;7.43;4.80;;;;;;;5.85;100.00;93507.25;2114049;28;20456;-84
2024/03/22 03:49:23;;;;;;;8.80;5.22;;;;;;;5.83;100.00;93504.19;2106573;28;20027;-86
2024/03/22 03:54:58;;;;;;;8.10;4.53;;;;;;;5.67;100.00;93501.16;2118113;27;20031;-83
2024/03/22 03:55:59;;;;;;;6.40;4.78;;;;;;;5.77;100.00;93506.47;2108029;28;20146;-84
2024/03/22 03:57:00;;;;;;;8.48;5.20;;;;;;;5.80;100.00;93505.72;2108232;28;20406;-85
2024/03/22 03:58:01;;;;;;;6.75;5.75;;;;;;;5.68;100.00;93498.09;2111511;28;20036;-85
2024/03/22 03:59:02;;;;;;;7.95;5.45;;;;;;;5.73;100.00;93497.75;2094862;28;20043;-85
2024/03/22 04:00:05;;;;;;;6.93;5.70;;;;;;;5.71;100.00;93499.25;2106548;28;20028;-84
2024/03/22 04:01:07;;;;;;;13.00;5.90;;;;;;;5.85;100.00;93501.94;2115530;27;20065;-86
2024/03/22 04:02:08;;;;;;;68.50;46.83;;;;;;;5.76;100.00;93497.00;2119785;27;20027;-83
2024/03/22 04:03:09;;;;;;;33.53;24.90;;;;;;;5.67;100.00;93491.28;2109778;28;20035;-84
2024/03/22 04:04:10;;;;;;;17.90;15.10;;;;;;;5.77;100.00;93492.44;2122874;27;20482;-83
2024/03/22 04:05:11;;;;;;;13.63;8.73;;;;;;;5.80;100.00;93497.00;2115161;28;20536;-84
2024/03/22 04:06:12;;;;;;;10.90;8.10;;;;;;;5.86;100.00;93492.84;2108792;28;20077;-84
2024/03/22 04:07:14;;;;;;;10.35;7.40;;;;;;;5.90;100.00;93483.00;2112126;28;20137;-85
2024/03/22 04:08:15;;;;;;;11.60;8.23;;;;;;;5.93;100.00;93494.81;2116377;27;20417;-84
2024/03/22 04:09:16;;;;;;;14.30;7.32;;;;;;;5.89;100.00;93488.69;2106327;28;20032;-84
2024/03/22 04:10:17;;;;;;;11.38;7.38;;;;;;;5.71;100.00;93486.75;2103810;28;20496;-83
2024/03/22 04:11:18;;;;;;;10.65;6.75;;;;;;;5.77;100.00;93490.56;2109351;28;20028;-83
2024/03/22 04:12:18;;;;;;;8.05;6.25;;;;;;;5.80;100.00;93489.06;2110015;28;20051;-83
2024/03/22 04:13:19;;;;;;;9.25;6.63;;;;;;;5.82;100.00;93495.50;2119810;27;20447;-83
2024/03/22 04:14:20;;;;;;;9.43;6.63;;;;;;;5.76;100.00;93486.38;2109448;28;20185;-84
2024/03/22 04:15:21;;;;;;;7.20;6.40;;;;;;;5.79;100.00;93490.16;2107420;28;20024;-84
2024/03/22 04:16:22;;;;;;;12.13;6.32;;;;;;;5.76;100.00;93496.25;2115899;27;20031;-86
2024/03/22 04:17:23;;;;;;;8.70;6.05;;;;;;;5.61;100.00;93490.13;2114641;28;20053;-82
2024/03/22 04:18:24;;;;;;;9.82;6.47;;;;;;;5.70;100.00;93487.88;2114646;28;20022;-83
2024/03/22 04:19:25;;;;;;;10.95;6.55;;;;;;;5.74;100.00;93482.59;2114714;28;20019;-83
2024/03/22 04:20:26;;;;;;;8.57;6.38;;;;;;;5.91;100.00;93478.47;2106134;28;20396;-83
2024/03/22 04:21:27;;;;;;;8.75;6.60;;;;;;;5.96;100.00;93478.88;2120728;27;20499;-84
2024/03/22 04:22:28;;;;;;;10.52;6.32;;;;;;;5.98;100.00;93473.97;2112231;28;20019;-84
2024/03/22 04:23:29;;;;;;;8.18;6.20;;;;;;;5.99;100.00;93485.31;2105079;28;20048;-84
2024/03/22 04:24:30;;;;;;;8.63;6.68;;;;;;;5.86;100.00;93484.13;2114519;28;20058;-84
2024/03/22 04:25:31;;;;;;;7.50;5.85;;;;;;;5.75;100.00;93487.53;2106207;28;20023;-83
2024/03/22 04:26:32;;;;;;;10.10;6.47;;;;;;;5.77;100.00;93482.59;2112321;28;20024;-85
2024/03/22 04:27:35;;;;;;;7.70;6.40;;;;;;;5.82;100.00;93482.22;2110265;28;20503;-85
2024/03/22 04:28:36;;;;;;;12.02;6.50;;;;;;;5.84;100.00;93484.53;2112436;27;20061;-85
2024/03/22 04:29:37;;;;;;;9.43;6.38;;;;;;;5.74;100.00;93482.59;2110017;28;20030;-84
2024/03/22 04:30:38;;;;;;;8.60;6.40;;;;;;;5.72;100.00;93480.31;2111800;27;20066;-86
2024/03/22 04:31:39;;;;;;;11.52;6.00;;;;;;;5.76;100.00;93480.34;2111240;28;20391;-84
2024/03/22 04:32:40;;;;;;;9.50;6.45;;;;;;;5.66;100.00;93475.75;2114229;28;20119;-84
2024/03/22 04:33:41;;;;;;;9.50;6.85;;;;;;;5.83;100.00;93472.38;2107792;28;20412;-84
2024/03/22 04:34:43;;;;;;;8.45;5.65;;;;;;;5.79;100.00;93479.56;2108621;28;20055;-82
2024/03/22 04:35:46;;;;;;;8.88;5.90;;;;;;;5.97;100.00;93480.41;2099630;28;20458;-84
2024/03/22 04:36:47;;;;;;;9.05;5.57;;;;;;;6.03;100.00;93475.47;2113959;28;20019;-83
2024/03/22 04:37:48;;;;;;;10.82;6.22;;;;;;;5.96;100.00;93473.56;2100355;28;20028;-82
2024/03/22 04:38:49;;;;;;;7.18;5.30;;;;;;;5.92;100.00;93470.13;2107310;28;20086;-84
2024/03/22 04:39:50;;;;;;;9.88;6.20;;;;;;;5.96;100.00;93470.16;2119680;27;20061;-87
2024/03/22 04:40:52;;;;;;;9.02;6.30;;;;;;;5.97;100.00;93475.09;2122579;27;20035;-84
2024/03/22 04:41:53;;;;;;;7.53;6.35;;;;;;;6.05;100.00;93476.59;2106239;28;20055;-84
2024/03/22 04:42:53;;;;;;;8.05;6.35;;;;;;;6.12;100.00;93473.22;2111481;28;20362;-85
2024/03/22 04:43:54;;;;;;;9.00;6.25;;;;;;;6.13;100.00;93476.63;2110947;28;20463;-84
2024/03/22 04:44:57;;;;;;;7.60;6.03;;;;;;;6.06;100.00;93477.38;2097685;28;20035;-84
2024/03/22 04:45:58;;;;;;;11.20;6.15;;;;;;;5.96;100.00;93475.47;2098085;28;20040;-85
2024/03/22 04:46:59;;;;;;;11.55;5.93;;;;;;;6.03;100.00;93478.88;2105853;27;20020;-84
2024/03/22 04:48:04;;;;;;;8.57;5.90;;;;;;;5.97;100.00;93479.63;2114305;28;20495;-85
2024/03/22 04:49:05;;;;;;;8.77;5.97;;;;;;;6.01;100.00;93478.50;2114463;28;20029;-82
2024/03/22 04:50:07;;;;;;;8.75;5.97;;;;;;;6.05;100.00;93481.16;2113648;28;20031;-85
2024/03/22 04:51:08;;;;;;;10.05;5.90;;;;;;;6.08;100.00;93471.69;2122789;27;20034;-83
2024/03/22 04:52:09;;;;;;;12.23;6.70;;;;;;;6.05;100.00;93476.59;2114488;27;20061;-85
2024/03/22 04:53:10;;;;;;;8.73;6.30;;;;;;;6.11;100.00;93476.25;2106081;28;20032;-84
2024/03/22 04:54:11;;;;;;;10.60;6.45;;;;;;;6.14;100.00;93476.22;2114384;28;20038;-84
2024/03/22 04:55:12;;;;;;;9.25;6.22;;;;;;;6.01;100.00;93481.16;2110350;28;20438;-85
2024/03/22 04:56:13;;;;;;;7.97;6.22;;;;;;;6.13;100.00;93479.28;2108162;28;20106;-84
2024/03/22 04:57:16;;;;;;;9.80;6.25;;;;;;;6.15;100.00;93480.41;2106025;28;20016;-85
2024/03/22 04:58:19;;;;;;;9.63;6.43;;;;;;;6.16;100.00;93478.53;2118084;27;20019;-84
2024/03/22 04:59:20;;;;;;;9.05;6.28;;;;;;;6.14;100.00;93472.81;2117113;27;20527;-85
2024/03/22 05:00:21;;;;;;;6.68;5.80;;;;;;;6.21;100.00;93472.84;2105820;28;20090;-83
2024/03/22 05:01:23;;;;;;;8.40;6.20;;;;;;;6.25;100.00;93478.91;2096242;28;20067;-85
2024/03/22 05:02:24;;;;;;;9.18;6.18;;;;;;;6.30;100.00;93479.28;2104091;28;20090;-84
2024/03/22 05:03:25;;;;;;;10.27;6.38;;;;;;;6.22;100.00;93475.09;2118276;27;20073;-84
2024/03/22 05:04:26;;;;;;;8.57;6.10;;;;;;;6.20;100.00;93479.28;2105687;28;20510;-83
2024/03/22 05:05:27;;;;;;;10.07;5.70;;;;;;;6.21;100.00;93478.16;2109837;28;20066;-84
2024/03/22 05:06:28;;;;;;;6.65;5.50;;;;;;;6.29;100.00;93475.13;2121316;27;20470;-84
2024/03/22 05:07:29;;;;;;;8.23;6.07;;;;;;;6.26;100.00;93478.53;2122247;27;20058;-84
2024/03/22 05:08:30;;;;;;;9.05;6.10;;;;;;;6.31;100.00;93472.06;2118349;27;20034;-84
2024/03/22 05:09:32;;;;;;;9.63;6.80;;;;;;;6.19;100.00;93478.53;2117777;27;20102;-84
2024/03/22 05:10:33;;;;;;;9.15;6.18;;;;;;;6.19;100.00;93481.19;2122457;27;20031;-85
2024/03/22 05:11:34;;;;;;;8.43;5.90;;;;;;;6.25;100.00;93468.28;2105835;28;20024;-83
2024/03/22 05:12:35;;;;;;;8.73;5.80;;;;;;;6.24;100.00;93475.50;2099956;28;20089;-82
2024/03/22 05:13:37;;;;;;;8.68;5.93;;;;;;;6.21;100.00;93465.63;2105383;28;20036;-84
2024/03/22 05:14:37;;;;;;;7.47;6.60;;;;;;;6.19;100.00;93467.13;2110167;27;20034;-85
2024/03/22 05:15:38;;;;;;;9.00;6.80;;;;;;;6.06;100.00;93472.06;2105290;28;20121;-84
2024/03/22 05:16:39;;;;;;;9.43;6.50;;;;;;;6.04;100.00;93466.38;2095583;28;20052;-84
2024/03/22 05:17:43;;;;;;;10.70;6.88;;;;;;;6.03;100.00;93462.22;2105643;28;20028;-87
2024/03/22 05:18:44;;;;;;;9.18;6.82;;;;;;;5.99;100.00;93472.81;2110232;28;20035;-86
2024/03/22 05:19:44;;;;;;;8.27;6.40;;;;;;;6.00;100.00;93466.38;2118466;27;20031;-85
2024/03/22 05:20:45;;;;;;;11.50;7.07;;;;;;;6.01;100.00;93465.25;2118755;27;20023;-83
2024/03/22 05:21:46;;;;;;;9.07;6.38;;;;;;;5.98;100.00;93470.53;2105713;28;20050;-83
2024/03/22 05:22:48;;;;;;;6.57;5.82;;;;;;;5.96;100.00;93472.81;2106080;28;20123;-85
2024/03/22 05:23:49;;;;;;;8.00;5.95;;;;;;;6.01;100.00;93470.56;2114742;27;20031;-83
2024/03/22 05:24:49;;;;;;;8.75;6.53;;;;;;;6.03;100.00;93467.50;2096950;28;20020;-82
2024/03/22 05:25:50;;;;;;;8.35;6.40;;;;;;;5.92;100.00;93462.19;2091728;28;20395;-84
2024/03/22 05:26:53;;;;;;;8.45;6.18;;;;;;;6.00;100.00;93468.25;2103470;28;20545;-84
2024/03/22 05:27:54;;;;;;;11.60;6.18;;;;;;;5.92;100.00;93456.88;2119973;27;20510;-84
2024/03/22 05:28:55;;;;;;;10.35;5.97;;;;;;;5.95;100.00;93461.44;2120580;27;20023;-84
2024/03/22 05:29:56;;;;;;;9.35;6.72;;;;;;;5.97;100.00;93461.03;2111358;28;20100;-83
2024/03/22 05:30:57;;;;;;;10.73;6.40;;;;;;;5.88;100.00;93463.28;2107676;28;20065;-84
2024/03/22 05:31:58;;;;;;;9.23;6.22;;;;;;;6.04;100.00;93464.47;2112947;28;20062;-84
2024/03/22 05:32:59;;;;;;;12.55;6.82;;;;;;;6.01;100.00;93456.50;2106660;28;20383;-86
2024/03/22 05:34:00;;;;;;;11.15;6.20;;;;;;;6.06;100.00;93448.19;2111786;28;20579;-84
2024/03/22 05:35:01;;;;;;;14.13;6.20;;;;;;;6.12;100.00;93459.19;2098062;28;20117;-84
2024/03/22 05:36:02;;;;;;;10.98;5.80;;;;;;;6.12;100.00;93457.28;2112739;28;20079;-83
2024/03/22 05:37:04;;;;;;;11.55;7.05;;;;;;;6.20;100.00;93458.06;2120196;27;20527;-84
2024/03/22 05:38:05;;;;;;;9.75;6.20;;;;;;;6.23;100.00;93466.03;2106053;28;20624;-85
2024/03/22 05:39:06;;;;;;;13.90;7.30;;;;;;;6.19;100.00;93467.91;2107955;28;20404;-84
2024/03/22 05:40:08;;;;;;;9.38;7.57;;;;;;;6.09;100.00;93463.34;2113707;28;20027;-86
2024/03/22 05:41:09;;;;;;;10.63;7.43;;;;;;;6.18;100.00;93460.31;2117253;27;20027;-85
2024/03/22 05:42:10;;;;;;;10.85;7.57;;;;;;;6.07;100.00;93460.31;2103350;28;20468;-83
2024/03/22 05:43:11;;;;;;;12.68;6.90;;;;;;;6.10;100.00;93456.13;2100604;28;20047;-84
2024/03/22 05:44:12;;;;;;;10.52;7.18;;;;;;;6.09;100.00;93459.94;2113400;28;20051;-82
2024/03/22 05:45:13;;;;;;;9.68;7.03;;;;;;;6.06;100.00;93458.81;2113451;28;20214;-83
2024/03/22 05:46:14;;;;;;;9.27;7.15;;;;;;;6.02;100.00;93452.75;2104918;28;20081;-84
2024/03/22 05:47:16;;;;;;;13.10;8.27;;;;;;;6.02;100.00;93455.41;2113133;28;20015;-82
2024/03/22 05:48:17;;;;;;;14.45;11.27;;;;;;;5.99;100.00;93456.13;2116948;27;20164;-83
2024/03/22 05:49:18;;;;;;;17.77;11.35;;;;;;;5.98;100.00;93452.72;2107769;28;20132;-86
2024/03/22 05:50:20;;;;;;;13.93;12.30;;;;;;;5.90;100.00;93453.81;2113817;27;20441;-85
2024/03/22 05:51:21;;;;;;;15.18;10.90;;;;;;;5.99;100.00;93454.25;2116068;27;20027;-84
2024/03/22 05:52:22;;;;;;;12.13;9.95;;;;;;;5.96;100.00;93451.56;2119542;27;20562;-86
2024/03/22 05:53:23;;;;;;;12.20;9.98;;;;;;;5.96;100.00;93452.34;2108172;28;20028;-86
2024/03/22 05:54:24;;;;;;;12.15;8.60;;;;;;;6.01;100.00;93448.53;2102619;28;20050;-85
2024/03/22 05:55:27;;;;;;;9.25;7.45;;;;;;;5.94;100.00;93454.63;2101944;28;20442;-84
2024/03/22 05:56:28;;;;;;;12.10;7.80;;;;;;;6.04;100.00;93453.88;2109192;28;20035;-84
2024/03/22 05:57:29;;;;;;;11.60;8.00;;;;;;;6.09;100.00;93455.38;2100252;28;20028;-85
2024/03/22 05:58:30;;;;;;;10.32;8.57;;;;;;;6.05;100.00;93455.38;2099510;28;20028;-84
2024/03/22 05:59:32;;;;;;;13.73;7.53;;;;;;;5.96;100.00;93459.53;2103048;28;20651;-84
2024/03/22 06:02:30;;;;;;;9.10;6.05;;;;;;;6.00;100.00;93453.09;2121973;27;20019;-85
2024/03/22 06:03:31;;;;;;;8.90;5.57;;;;;;;5.96;100.00;93446.28;2118781;27;20035;-83
2024/03/22 06:04:32;;;;;;;11.38;6.15;;;;;;;5.84;100.00;93444.72;2110907;28;20047;-84
2024/03/22 06:05:33;;;;;;;7.60;6.18;;;;;;;6.02;100.00;93445.53;2101880;28;20017;-83
2024/03/22 06:06:35;;;;;;;10.50;6.10;;;;;;;6.07;100.00;93446.28;2096764;28;20454;-84
2024/03/22 06:07:41;;;;;;;10.02;6.25;;;;;;;6.05;100.00;93446.66;2111251;28;20464;-83
2024/03/22 06:08:45;;;;;;;10.88;6.00;;;;;;;6.02;100.00;93453.50;2114533;27;20019;-84
2024/03/22 06:09:46;;;;;;;8.30;5.72;;;;;;;6.04;100.00;93448.56;2113989;28;20399;-85
2024/03/22 06:10:46;;;;;;;10.73;6.38;;;;;;;6.12;100.00;93451.97;2102186;28;20027;-86
2024/03/22 06:11:47;;;;;;;7.97;6.30;;;;;;;6.07;100.00;93454.25;2106203;28;20571;-84
2024/03/22 06:12:48;;;;;;;9.73;6.07;;;;;;;6.08;100.00;93445.16;2115939;27;20124;-83